createdAt,value
2017-08-16T00:00:51.206Z,29.47
2017-08-16T00:03:17.831Z,26.57
2017-08-16T00:05:44.466Z,31.87
2017-08-16T00:08:11.121Z,33.17
2017-08-16T00:10:37.777Z,30.03
2017-08-16T00:13:04.407Z,32.20
2017-08-16T00:15:31.063Z,33.53
2017-08-16T00:17:57.662Z,33.90
2017-08-16T00:20:24.292Z,37.03
2017-08-16T00:22:50.928Z,31.87
2017-08-16T00:25:17.565Z,29.57
2017-08-16T00:27:44.285Z,33.63
2017-08-16T00:30:10.900Z,37.00
2017-08-16T00:32:37.548Z,41.70
2017-08-16T00:35:04.203Z,38.17
2017-08-16T00:37:30.828Z,37.80
2017-08-16T00:39:57.782Z,28.77
2017-08-16T00:42:25.411Z,27.07
2017-08-16T00:44:52.086Z,37.00
2017-08-16T00:47:18.787Z,35.47
2017-08-16T00:49:45.424Z,36.00
2017-08-16T00:52:12.101Z,34.13
2017-08-16T00:54:38.735Z,31.03
2017-08-16T00:57:05.548Z,30.17
2017-08-16T00:59:32.188Z,33.20
2017-08-16T01:01:58.849Z,35.57
2017-08-16T01:04:25.479Z,36.80
2017-08-16T01:06:52.117Z,38.60
2017-08-16T01:09:18.755Z,40.03
2017-08-16T01:11:45.963Z,38.33
2017-08-16T01:14:12.595Z,36.07
2017-08-16T01:16:39.230Z,40.47
2017-08-16T01:19:05.886Z,41.30
2017-08-16T01:21:32.551Z,35.03
2017-08-16T01:23:59.167Z,37.20
2017-08-16T01:26:25.817Z,36.23
2017-08-16T01:28:52.448Z,37.10
2017-08-16T01:31:19.107Z,48.07
2017-08-16T01:33:45.723Z,43.50
2017-08-16T01:36:12.343Z,39.20
2017-08-16T01:38:39.260Z,45.50
2017-08-16T01:41:05.899Z,44.50
2017-08-16T01:43:32.544Z,38.67
2017-08-16T01:45:59.199Z,45.97
2017-08-16T01:48:25.807Z,46.93
2017-08-16T01:50:52.455Z,43.73
2017-08-16T01:53:19.077Z,42.87
2017-08-16T01:55:45.741Z,48.13
2017-08-16T01:58:12.399Z,49.53
2017-08-16T02:00:39.022Z,50.20
2017-08-16T02:03:05.634Z,46.67
2017-08-16T02:05:32.299Z,58.27
2017-08-16T02:07:58.936Z,57.47
2017-08-16T02:10:25.544Z,54.20
2017-08-16T02:12:52.200Z,55.17
2017-08-16T02:15:18.811Z,53.57
2017-08-16T02:17:45.511Z,56.63
2017-08-16T02:20:12.202Z,52.40
2017-08-16T02:22:38.844Z,62.87
2017-08-16T02:25:05.476Z,60.03
2017-08-16T02:27:32.106Z,71.60
2017-08-16T02:29:58.751Z,73.60
2017-08-16T02:32:25.493Z,55.13
2017-08-16T02:34:52.126Z,55.20
2017-08-16T02:37:18.756Z,59.17
2017-08-16T02:39:45.391Z,62.63
2017-08-16T02:42:12.006Z,61.53
2017-08-16T02:44:38.672Z,59.80
2017-08-16T02:47:05.324Z,57.37
2017-08-16T02:49:31.956Z,62.27
2017-08-16T02:51:58.614Z,55.80
2017-08-16T02:54:25.228Z,56.37
2017-08-16T02:56:51.868Z,61.27
2017-08-16T02:59:18.484Z,63.00
2017-08-16T03:01:45.103Z,61.27
2017-08-16T03:04:11.750Z,66.10
2017-08-16T03:06:38.448Z,66.63
2017-08-16T03:09:05.060Z,75.37
2017-08-16T03:11:31.698Z,61.40
2017-08-16T03:13:58.322Z,64.77
2017-08-16T03:16:24.967Z,62.20
2017-08-16T03:18:51.595Z,79.73
2017-08-16T03:21:18.222Z,73.23
2017-08-16T03:23:44.873Z,72.30
2017-08-16T03:26:11.511Z,74.33
2017-08-16T03:28:38.127Z,72.93
2017-08-16T03:31:04.775Z,74.73
2017-08-16T03:33:31.398Z,73.37
2017-08-16T03:35:58.313Z,84.33
2017-08-16T03:38:24.976Z,77.70
2017-08-16T03:40:51.609Z,81.27
2017-08-16T03:43:18.228Z,73.77
2017-08-16T03:45:44.879Z,72.53
2017-08-16T03:48:11.496Z,77.37
2017-08-16T03:50:38.156Z,79.53
2017-08-16T03:53:04.793Z,81.27
2017-08-16T03:55:31.450Z,86.27
2017-08-16T03:57:58.080Z,84.23
2017-08-16T04:00:24.724Z,81.87
2017-08-16T04:02:51.354Z,83.57
2017-08-16T04:05:17.985Z,76.27
2017-08-16T04:07:44.615Z,76.47
2017-08-16T04:10:11.253Z,72.40
2017-08-16T04:12:37.887Z,82.40
2017-08-16T04:15:04.511Z,90.37
2017-08-16T04:17:31.157Z,71.33
2017-08-16T04:19:58.616Z,73.03
2017-08-16T04:22:25.227Z,79.70
2017-08-16T04:24:52.229Z,74.33
2017-08-16T04:27:18.853Z,84.93
2017-08-16T04:29:45.481Z,80.37
2017-08-16T04:32:12.140Z,77.63
2017-08-16T04:34:38.758Z,76.70
2017-08-16T04:37:05.424Z,83.73
2017-08-16T04:39:32.047Z,75.33
2017-08-16T04:41:58.659Z,75.80
2017-08-16T04:44:25.319Z,86.20
2017-08-16T04:46:51.954Z,97.00
2017-08-16T04:49:18.575Z,80.87
2017-08-16T04:51:45.204Z,85.57
2017-08-16T04:54:11.838Z,81.53
2017-08-16T04:56:38.459Z,86.63
2017-08-16T04:59:05.091Z,81.00
2017-08-16T05:01:31.728Z,87.70
2017-08-16T05:03:58.378Z,86.93
2017-08-16T05:06:25.006Z,79.70
2017-08-16T05:08:51.628Z,96.07
2017-08-16T05:11:18.287Z,84.40
2017-08-16T05:13:44.892Z,89.93
2017-08-16T05:16:11.543Z,91.03
2017-08-16T05:18:38.179Z,96.00
2017-08-16T05:21:04.863Z,106.10
2017-08-16T05:23:31.471Z,83.93
2017-08-16T05:25:58.102Z,95.93
2017-08-16T05:28:24.746Z,86.80
2017-08-16T05:30:51.366Z,87.77
2017-08-16T05:33:18.015Z,77.47
2017-08-16T05:35:44.636Z,79.73
2017-08-16T05:38:11.267Z,86.77
2017-08-16T05:40:37.903Z,84.80
2017-08-16T05:43:04.544Z,84.83
2017-08-16T05:45:31.160Z,84.23
2017-08-16T05:47:57.802Z,86.10
2017-08-16T05:50:24.429Z,96.80
2017-08-16T05:52:51.076Z,89.37
2017-08-16T05:55:17.682Z,87.67
2017-08-16T05:57:44.333Z,85.60
2017-08-16T06:00:10.954Z,87.57
2017-08-16T06:02:37.576Z,83.47
2017-08-16T06:05:04.208Z,95.03
2017-08-16T06:07:30.839Z,99.90
2017-08-16T06:09:57.442Z,94.00
2017-08-16T06:12:24.101Z,100.97
2017-08-16T06:14:50.730Z,101.83
2017-08-16T06:17:17.375Z,94.83
2017-08-16T06:19:44.001Z,95.37
2017-08-16T06:22:10.638Z,104.93
2017-08-16T06:24:37.252Z,111.70
2017-08-16T06:27:03.886Z,110.73
2017-08-16T06:29:30.534Z,102.17
2017-08-16T06:31:57.178Z,109.93
2017-08-16T06:34:23.827Z,119.80
2017-08-16T06:36:50.485Z,105.67
2017-08-16T06:39:17.138Z,127.17
2017-08-16T06:41:43.767Z,116.13
2017-08-16T06:44:10.834Z,132.33
2017-08-16T06:46:37.499Z,122.70
2017-08-16T06:49:04.132Z,129.90
2017-08-16T06:51:30.756Z,136.40
2017-08-16T06:53:57.411Z,133.00
2017-08-16T06:56:24.074Z,151.50
2017-08-16T06:58:50.710Z,138.30
2017-08-16T07:01:17.784Z,124.23
2017-08-16T07:03:44.400Z,144.97
2017-08-16T07:06:11.047Z,162.63
2017-08-16T07:08:37.702Z,129.13
2017-08-16T07:11:05.154Z,140.20
2017-08-16T07:13:31.796Z,134.57
2017-08-16T07:15:58.475Z,132.23
2017-08-16T07:18:25.113Z,126.70
2017-08-16T07:20:51.793Z,127.97
2017-08-16T07:23:18.419Z,125.07
2017-08-16T07:25:45.042Z,114.07
2017-08-16T07:28:11.676Z,115.60
2017-08-16T07:30:38.290Z,116.67
2017-08-16T07:33:04.950Z,109.53
2017-08-16T07:35:31.598Z,106.83
2017-08-16T07:37:58.206Z,79.97
2017-08-16T07:40:24.834Z,81.93
2017-08-16T07:42:51.456Z,80.27
2017-08-16T07:45:18.150Z,79.77
2017-08-16T07:47:44.759Z,74.23
2017-08-16T07:50:11.386Z,69.33
2017-08-16T07:52:38.027Z,73.93
2017-08-16T07:55:04.655Z,67.30
2017-08-16T07:57:31.307Z,74.17
2017-08-16T07:59:58.779Z,65.10
2017-08-16T08:02:25.438Z,77.33
2017-08-16T08:04:52.056Z,55.33
2017-08-16T08:07:18.676Z,84.37
2017-08-16T08:09:45.332Z,83.50
2017-08-16T08:12:11.968Z,71.63
2017-08-16T08:14:38.598Z,83.63
2017-08-16T08:17:05.221Z,76.40
2017-08-16T08:19:31.871Z,74.37
2017-08-16T08:21:58.498Z,62.90
2017-08-16T08:24:25.150Z,70.23
2017-08-16T08:26:53.016Z,76.43
2017-08-16T08:29:19.643Z,77.30
2017-08-16T08:31:46.286Z,83.30
2017-08-16T08:34:12.919Z,85.20
2017-08-16T08:36:39.565Z,89.37
2017-08-16T08:39:06.193Z,96.80
2017-08-16T08:41:32.835Z,88.63
2017-08-16T08:43:59.479Z,93.13
2017-08-16T08:46:26.118Z,84.27
2017-08-16T08:48:52.746Z,75.30
2017-08-16T08:51:19.379Z,68.67
2017-08-16T08:53:46.008Z,65.73
2017-08-16T08:56:12.648Z,80.23
2017-08-16T08:58:39.291Z,58.90
2017-08-16T09:01:05.903Z,59.07
2017-08-16T09:03:32.538Z,52.53
2017-08-16T09:05:59.179Z,61.20
2017-08-16T09:08:25.822Z,60.63
2017-08-16T09:10:52.472Z,44.03
2017-08-16T09:13:19.137Z,43.17
2017-08-16T09:15:45.770Z,50.87
2017-08-16T09:18:12.408Z,37.47
2017-08-16T09:20:39.035Z,41.53
2017-08-16T09:23:05.658Z,42.03
2017-08-16T09:25:32.313Z,35.47
2017-08-16T09:27:58.932Z,35.77
2017-08-16T09:30:25.581Z,35.10
2017-08-16T09:32:52.250Z,29.17
2017-08-16T09:35:18.859Z,34.23
2017-08-16T09:37:45.500Z,26.57
2017-08-16T09:40:12.121Z,24.07
2017-08-16T09:42:38.745Z,25.90
2017-08-16T09:45:06.099Z,30.30
2017-08-16T09:47:32.715Z,31.40
2017-08-16T09:49:59.358Z,28.03
2017-08-16T09:52:25.992Z,22.70
2017-08-16T09:54:52.643Z,24.47
2017-08-16T09:57:19.264Z,26.67
2017-08-16T09:59:45.899Z,22.80
2017-08-16T10:02:12.540Z,24.77
2017-08-16T10:04:39.207Z,25.63
2017-08-16T10:07:05.844Z,27.47
2017-08-16T10:09:32.716Z,28.57
2017-08-16T10:11:59.330Z,25.37
2017-08-16T10:14:25.986Z,29.93
2017-08-16T10:16:52.642Z,25.20
2017-08-16T10:19:19.255Z,24.97
2017-08-16T10:21:45.911Z,19.77
2017-08-16T10:24:12.523Z,19.60
2017-08-16T10:26:39.160Z,22.10
2017-08-16T10:29:05.810Z,18.13
2017-08-16T10:31:32.418Z,20.20
2017-08-16T10:33:59.065Z,20.70
2017-08-16T10:36:25.694Z,18.60
2017-08-16T10:38:52.345Z,21.10
2017-08-16T10:41:18.962Z,22.57
2017-08-16T10:43:45.986Z,20.43
2017-08-16T10:46:12.613Z,19.27
2017-08-16T10:48:39.253Z,30.27
2017-08-16T10:51:05.919Z,24.43
2017-08-16T10:53:32.544Z,18.17
2017-08-16T10:55:59.579Z,14.33
2017-08-16T10:58:26.199Z,14.57
2017-08-16T11:00:52.858Z,17.33
2017-08-16T11:03:19.484Z,18.13
2017-08-16T11:05:46.110Z,16.47
2017-08-16T11:08:12.751Z,17.67
2017-08-16T11:10:39.382Z,15.30
2017-08-16T11:13:06.027Z,14.73
2017-08-16T11:15:32.655Z,10.87
2017-08-16T11:17:59.283Z,9.50
2017-08-16T11:20:25.932Z,9.17
2017-08-16T11:22:52.538Z,7.83
2017-08-16T11:25:19.167Z,8.93
2017-08-16T11:27:45.799Z,10.10
2017-08-16T11:30:12.422Z,10.53
2017-08-16T11:32:39.041Z,9.37
2017-08-16T11:35:05.701Z,10.60
2017-08-16T11:37:32.318Z,11.83
2017-08-16T11:39:58.948Z,13.60
2017-08-16T11:42:25.589Z,17.47
2017-08-16T11:44:52.228Z,18.10
2017-08-16T11:47:18.867Z,12.70
2017-08-16T11:49:45.491Z,12.70
2017-08-16T11:52:12.146Z,14.20
2017-08-16T11:54:38.758Z,11.63
2017-08-16T11:57:05.382Z,21.07
2017-08-16T11:59:32.022Z,13.67
2017-08-16T12:01:58.635Z,10.47
2017-08-16T12:04:25.283Z,12.73
2017-08-16T12:06:51.944Z,10.00
2017-08-16T12:09:18.549Z,8.80
2017-08-16T12:11:45.190Z,11.87
2017-08-16T12:14:11.823Z,9.73
2017-08-16T12:16:38.459Z,12.13
2017-08-16T12:19:05.068Z,7.90
2017-08-16T12:21:31.677Z,11.20
2017-08-16T12:23:58.300Z,6.40
2017-08-16T12:26:24.927Z,8.43
2017-08-16T12:28:51.588Z,10.43
2017-08-16T12:31:18.219Z,7.67
2017-08-16T12:33:44.832Z,9.33
2017-08-16T12:36:11.469Z,14.23
2017-08-16T12:38:38.115Z,10.17
2017-08-16T12:41:04.789Z,12.33
2017-08-16T12:43:31.415Z,10.60
2017-08-16T12:45:58.019Z,7.50
2017-08-16T12:48:24.654Z,5.50
2017-08-16T12:50:51.277Z,7.10
2017-08-16T12:53:17.908Z,8.60
2017-08-16T12:55:44.541Z,6.00
2017-08-16T12:58:11.171Z,5.70
2017-08-16T13:00:37.788Z,5.00
2017-08-16T13:03:04.429Z,6.77
2017-08-16T13:05:31.037Z,2.27
2017-08-16T13:07:57.666Z,7.43
2017-08-16T13:10:24.303Z,9.33
2017-08-16T13:12:51.317Z,3.00
2017-08-16T13:15:17.928Z,2.73
2017-08-16T13:17:44.559Z,5.17
2017-08-16T13:20:11.208Z,6.17
2017-08-16T13:22:37.839Z,6.80
2017-08-16T13:25:04.467Z,4.07
2017-08-16T13:27:31.087Z,4.67
2017-08-16T13:29:57.708Z,3.80
2017-08-16T13:32:24.330Z,4.37
2017-08-16T13:34:50.939Z,3.97
2017-08-16T13:37:17.579Z,4.37
2017-08-16T13:39:44.216Z,5.37
2017-08-16T13:42:10.858Z,6.13
2017-08-16T13:44:37.488Z,4.77
2017-08-16T13:47:04.103Z,4.97
2017-08-16T13:49:30.735Z,6.27
2017-08-16T13:51:57.363Z,6.90
2017-08-16T13:54:24.012Z,12.17
2017-08-16T13:56:51.493Z,4.03
2017-08-16T13:59:18.142Z,3.70
2017-08-16T14:01:44.768Z,4.10
2017-08-16T14:04:11.408Z,8.30
2017-08-16T14:06:38.061Z,4.07
2017-08-16T14:09:04.698Z,4.40
2017-08-16T14:11:31.327Z,5.03
2017-08-16T14:13:57.988Z,6.13
2017-08-16T14:16:24.635Z,5.30
2017-08-16T14:18:51.249Z,4.73
2017-08-16T14:21:18.215Z,5.33
2017-08-16T14:23:44.819Z,5.20
2017-08-16T14:26:11.444Z,4.47
2017-08-16T14:28:38.076Z,4.73
2017-08-16T14:31:04.738Z,3.03
2017-08-16T14:33:31.375Z,3.97
2017-08-16T14:35:57.994Z,3.47
2017-08-16T14:38:24.625Z,3.20
2017-08-16T14:40:51.259Z,3.73
2017-08-16T14:43:17.876Z,2.93
2017-08-16T14:45:44.486Z,3.63
2017-08-16T14:48:11.112Z,3.43
2017-08-16T14:50:37.732Z,3.00
2017-08-16T14:53:04.408Z,2.50
2017-08-16T14:55:31.043Z,4.37
2017-08-16T14:57:57.674Z,2.70
2017-08-16T15:00:24.302Z,3.10
2017-08-16T15:02:50.919Z,4.10
2017-08-16T15:05:17.556Z,3.10
2017-08-16T15:07:44.175Z,4.50
2017-08-16T15:10:10.787Z,5.43
2017-08-16T15:12:37.421Z,6.03
2017-08-16T15:15:04.059Z,3.50
2017-08-16T15:17:30.702Z,2.60
2017-08-16T15:19:57.312Z,3.40
2017-08-16T15:22:23.967Z,3.47
2017-08-16T15:24:50.831Z,3.87
2017-08-16T15:27:17.469Z,3.30
2017-08-16T15:29:44.127Z,3.37
2017-08-16T15:32:10.759Z,6.33
2017-08-16T15:34:37.395Z,4.07
2017-08-16T15:37:04.016Z,5.57
2017-08-16T15:39:30.654Z,4.27
2017-08-16T15:41:57.288Z,4.53
2017-08-16T15:44:23.900Z,3.30
2017-08-16T15:46:50.567Z,2.97
2017-08-16T15:49:17.195Z,5.57
2017-08-16T15:51:44.173Z,3.07
2017-08-16T15:54:10.823Z,7.10
2017-08-16T15:56:39.694Z,4.37
2017-08-16T15:59:07.800Z,5.40
2017-08-16T16:01:34.441Z,3.73
2017-08-16T16:04:01.076Z,5.57
2017-08-16T16:06:27.737Z,5.00
2017-08-16T16:08:54.360Z,5.97
2017-08-16T16:11:21.006Z,4.47
2017-08-16T16:13:47.629Z,4.90
2017-08-16T16:16:14.270Z,8.13
2017-08-16T16:18:40.897Z,4.73
2017-08-16T16:21:07.510Z,5.10
2017-08-16T16:23:34.169Z,4.40
2017-08-16T16:26:00.780Z,4.80
2017-08-16T16:28:27.399Z,4.87
2017-08-16T16:30:54.038Z,5.10
2017-08-16T16:33:20.647Z,5.20
2017-08-16T16:35:47.272Z,4.67
2017-08-16T16:38:13.896Z,4.03
2017-08-16T16:40:40.556Z,4.53
2017-08-16T16:43:07.179Z,5.73
2017-08-16T16:45:33.820Z,4.67
2017-08-16T16:48:01.633Z,3.57
2017-08-16T16:50:28.605Z,3.87
2017-08-16T16:52:55.249Z,4.53
2017-08-16T16:55:21.884Z,4.17
2017-08-16T16:57:49.396Z,4.47
2017-08-16T17:00:16.024Z,6.00
2017-08-16T17:02:42.636Z,3.90
2017-08-16T17:05:09.284Z,5.53
2017-08-16T17:07:35.920Z,5.03
2017-08-16T17:10:02.566Z,3.77
2017-08-16T17:12:29.223Z,4.27
2017-08-16T17:14:55.871Z,5.10
2017-08-16T17:17:22.486Z,4.30
2017-08-16T17:19:49.120Z,7.53
2017-08-16T17:22:15.756Z,7.40
2017-08-16T17:24:42.386Z,4.70
2017-08-16T17:27:09.013Z,5.20
2017-08-16T17:29:35.656Z,4.40
2017-08-16T17:32:02.903Z,4.70
2017-08-16T17:34:29.616Z,5.73
2017-08-16T17:36:56.256Z,5.73
2017-08-16T17:39:22.889Z,5.20
2017-08-16T17:41:50.548Z,6.73
2017-08-16T17:44:17.183Z,4.60
2017-08-16T17:46:43.839Z,5.60
2017-08-16T17:49:10.502Z,6.40
2017-08-16T17:51:37.102Z,6.10
2017-08-16T17:54:03.713Z,5.70
2017-08-16T17:56:30.350Z,6.30
2017-08-16T17:58:57.506Z,5.07
2017-08-16T18:01:24.164Z,7.63
2017-08-16T18:03:51.127Z,5.27
2017-08-16T18:06:17.764Z,6.50
2017-08-16T18:08:44.395Z,5.23
2017-08-16T18:11:11.050Z,5.23
2017-08-16T18:13:37.659Z,4.57
2017-08-16T18:16:04.762Z,6.27
2017-08-16T18:18:31.422Z,9.60
2017-08-16T18:20:58.042Z,7.90
2017-08-16T18:23:24.683Z,6.70
2017-08-16T18:25:51.332Z,6.10
2017-08-16T18:28:17.956Z,6.33
2017-08-16T18:30:44.573Z,12.63
2017-08-16T18:33:11.215Z,10.03
2017-08-16T18:35:37.849Z,6.97
2017-08-16T18:38:04.467Z,5.67
2017-08-16T18:40:31.098Z,7.80
2017-08-16T18:42:57.729Z,7.87
2017-08-16T18:45:24.374Z,5.77
2017-08-16T18:47:51.022Z,11.63
2017-08-16T18:50:17.631Z,6.47
2017-08-16T18:52:44.271Z,5.30
2017-08-16T18:55:10.891Z,8.77
2017-08-16T18:57:37.531Z,5.50
2017-08-16T19:00:04.154Z,5.93
2017-08-16T19:02:30.797Z,9.50
2017-08-16T19:04:57.438Z,9.43
2017-08-16T19:07:24.062Z,8.93
2017-08-16T19:09:50.693Z,7.13
2017-08-16T19:12:17.323Z,7.60
2017-08-16T19:14:43.971Z,10.87
2017-08-16T19:17:10.597Z,6.10
2017-08-16T19:19:37.220Z,8.07
2017-08-16T19:22:03.873Z,6.60
2017-08-16T19:24:30.538Z,12.30
2017-08-16T19:26:57.211Z,8.90
2017-08-16T19:29:23.871Z,7.93
2017-08-16T19:31:50.492Z,9.70
2017-08-16T19:34:17.136Z,8.63
2017-08-16T19:36:46.467Z,6.93
2017-08-16T19:39:14.670Z,7.77
2017-08-16T19:41:43.672Z,9.23
2017-08-16T19:44:13.384Z,8.03
2017-08-16T19:46:41.672Z,9.70
2017-08-16T19:49:08.320Z,10.40
2017-08-16T19:51:34.991Z,17.70
2017-08-16T19:54:01.616Z,14.33
2017-08-16T19:56:28.545Z,10.13
2017-08-16T19:58:57.089Z,11.13
2017-08-16T20:01:24.057Z,10.83
2017-08-16T20:03:51.663Z,9.80
2017-08-16T20:06:18.577Z,12.50
2017-08-16T20:08:48.345Z,12.30
2017-08-16T20:11:15.332Z,10.17
2017-08-16T20:13:44.533Z,10.70
2017-08-16T20:16:13.403Z,13.47
2017-08-16T20:18:41.820Z,13.20
2017-08-16T20:21:08.455Z,12.00
2017-08-16T20:23:35.742Z,13.10
2017-08-16T20:26:02.420Z,11.97
2017-08-16T20:28:29.095Z,14.87
2017-08-16T20:30:55.758Z,14.43
2017-08-16T20:33:22.382Z,12.77
2017-08-16T20:35:49.026Z,14.63
2017-08-16T20:38:15.705Z,15.40
2017-08-16T20:40:42.638Z,16.30
2017-08-16T20:43:09.274Z,14.57
2017-08-16T20:45:35.929Z,14.40
2017-08-16T20:48:02.552Z,17.30
2017-08-16T20:50:29.207Z,15.80
2017-08-16T20:52:55.828Z,21.23
2017-08-16T20:55:22.450Z,15.87
2017-08-16T20:57:49.129Z,20.23
2017-08-16T21:00:15.811Z,16.47
2017-08-16T21:02:42.464Z,18.63
2017-08-16T21:05:09.115Z,18.60
2017-08-16T21:07:35.767Z,17.50
2017-08-16T21:10:02.412Z,21.50
2017-08-16T21:12:29.055Z,18.93
2017-08-16T21:14:56.015Z,19.27
2017-08-16T21:17:22.650Z,19.80
2017-08-16T21:19:49.299Z,17.83
2017-08-16T21:22:15.928Z,18.83
2017-08-16T21:24:42.560Z,17.50
2017-08-16T21:27:09.304Z,17.50
2017-08-16T21:29:35.926Z,23.30
2017-08-16T21:32:02.589Z,20.37
2017-08-16T21:34:29.221Z,19.20
2017-08-16T21:36:55.895Z,19.50
2017-08-16T21:39:22.535Z,19.03
2017-08-16T21:41:49.175Z,20.53
2017-08-16T21:44:15.834Z,19.53
2017-08-16T21:46:42.516Z,22.93
2017-08-16T21:49:09.188Z,22.50
2017-08-16T21:51:35.813Z,15.50
2017-08-16T21:56:38.509Z,20.90
2017-08-16T21:59:05.165Z,17.57
2017-08-16T22:01:31.783Z,22.67
2017-08-16T22:03:58.408Z,21.10
2017-08-16T22:06:25.076Z,21.53
2017-08-16T22:08:51.700Z,18.50
2017-08-16T22:11:18.387Z,13.53
2017-08-16T22:13:45.023Z,11.43
2017-08-16T22:16:11.688Z,15.57
2017-08-16T22:18:38.303Z,15.30
2017-08-16T22:21:04.945Z,14.73
2017-08-16T22:23:31.597Z,12.40
2017-08-16T22:25:58.236Z,13.33
2017-08-16T22:28:24.863Z,15.27
2017-08-16T22:30:51.486Z,15.63
2017-08-16T22:33:18.126Z,14.30
2017-08-16T22:35:44.761Z,16.63
2017-08-16T22:38:11.420Z,15.50
2017-08-16T22:40:38.057Z,17.23
2017-08-16T22:43:04.707Z,18.80
2017-08-16T22:45:31.367Z,11.43
2017-08-16T22:47:57.996Z,11.97
2017-08-16T22:50:24.636Z,12.60
2017-08-16T22:52:51.267Z,13.20
2017-08-16T22:55:17.903Z,14.97
2017-08-16T22:57:44.523Z,24.03
2017-08-16T23:00:11.201Z,20.30
2017-08-16T23:02:37.851Z,16.40
2017-08-16T23:05:04.488Z,14.93
2017-08-16T23:07:31.136Z,22.00
2017-08-16T23:09:58.104Z,14.83
2017-08-16T23:12:24.723Z,10.73
2017-08-16T23:14:51.372Z,12.90
2017-08-16T23:17:17.985Z,13.13
2017-08-16T23:19:44.616Z,15.93
2017-08-16T23:22:11.249Z,12.60
2017-08-16T23:24:37.876Z,16.30
2017-08-16T23:27:04.522Z,14.60
2017-08-16T23:29:31.144Z,13.10
2017-08-16T23:31:57.771Z,12.67
2017-08-16T23:34:24.406Z,14.17
2017-08-16T23:36:51.027Z,16.23
2017-08-16T23:39:17.677Z,15.10
2017-08-16T23:41:44.329Z,24.30
2017-08-16T23:44:11.007Z,11.93
2017-08-16T23:46:37.615Z,15.43
2017-08-16T23:49:04.257Z,14.30
2017-08-16T23:51:30.883Z,12.30
2017-08-16T23:53:57.527Z,19.23
2017-08-16T23:56:24.159Z,18.00
2017-08-16T23:58:50.794Z,16.10
